createdAt,value
2017-04-06T00:02:55.058Z,7.95
2017-04-06T00:07:51.487Z,7.95
2017-04-06T00:12:47.607Z,8.15
2017-04-06T00:17:44.368Z,8.18
2017-04-06T00:22:44.847Z,8.20
2017-04-06T00:27:41.302Z,8.19
2017-04-06T00:32:37.674Z,8.28
2017-04-06T00:37:34.265Z,8.27
2017-04-06T00:42:30.889Z,8.30
2017-04-06T00:47:27.325Z,8.37
2017-04-06T00:52:28.412Z,8.44
2017-04-06T00:57:23.956Z,8.44
2017-04-06T01:02:20.227Z,8.46
2017-04-06T01:07:16.651Z,8.42
2017-04-06T01:12:13.781Z,8.28
2017-04-06T01:17:10.208Z,8.28
2017-04-06T01:22:06.713Z,8.10
2017-04-06T01:27:03.099Z,8.12
2017-04-06T01:32:02.131Z,7.91
2017-04-06T01:36:57.925Z,8.05
2017-04-06T01:41:54.425Z,7.97
2017-04-06T01:46:50.811Z,8.01
2017-04-06T01:51:46.912Z,8.00
2017-04-06T01:56:43.312Z,7.91
2017-04-06T02:01:39.795Z,7.94
2017-04-06T02:06:36.394Z,8.13
2017-04-06T02:11:33.103Z,8.00
2017-04-06T02:16:30.765Z,7.83
2017-04-06T02:21:26.877Z,8.00
2017-04-06T02:26:23.366Z,7.82
2017-04-06T02:31:19.646Z,7.87
2017-04-06T02:36:16.177Z,7.80
2017-04-06T02:41:12.875Z,7.91
2017-04-06T02:46:10.100Z,7.87
2017-04-06T02:51:06.251Z,7.83
2017-04-06T02:56:03.205Z,7.85
2017-04-06T03:00:59.918Z,7.79
2017-04-06T03:05:56.457Z,7.73
2017-04-06T03:10:52.956Z,7.80
2017-04-06T03:15:49.499Z,7.83
2017-04-06T03:20:46.613Z,7.73
2017-04-06T03:25:43.677Z,7.76
2017-04-06T03:30:39.735Z,7.83
2017-04-06T03:35:36.264Z,7.90
2017-04-06T03:40:32.593Z,7.76
2017-04-06T03:45:29.119Z,7.79
2017-04-06T03:50:25.673Z,7.77
2017-04-06T03:55:22.199Z,7.79
2017-04-06T04:00:18.457Z,7.80
2017-04-06T04:05:15.625Z,7.75
2017-04-06T04:10:12.138Z,7.70
2017-04-06T04:15:10.219Z,7.79
2017-04-06T04:20:06.191Z,7.77
2017-04-06T04:25:02.538Z,7.57
2017-04-06T04:29:59.253Z,7.60
2017-04-06T04:34:56.516Z,7.58
2017-04-06T04:39:52.647Z,7.53
2017-04-06T04:44:48.979Z,7.58
2017-04-06T04:49:45.103Z,7.47
2017-04-06T04:54:41.566Z,7.58
2017-04-06T04:59:38.222Z,7.50
2017-04-06T05:04:34.878Z,7.61
2017-04-06T05:09:31.244Z,7.29
2017-04-06T05:14:28.358Z,7.38
2017-04-06T05:19:24.948Z,7.40
2017-04-06T05:24:21.824Z,7.57
2017-04-06T05:29:18.545Z,7.67
2017-04-06T05:34:15.002Z,7.79
2017-04-06T05:39:11.963Z,7.82
2017-04-06T05:44:08.638Z,7.75
2017-04-06T05:49:05.465Z,7.76
2017-04-06T05:54:02.913Z,7.75
2017-04-06T05:58:59.183Z,7.70
2017-04-06T06:03:55.547Z,7.75
2017-04-06T06:08:52.145Z,7.85
2017-04-06T06:13:48.609Z,7.95
2017-04-06T06:18:45.277Z,7.88
2017-04-06T06:23:41.593Z,7.90
2017-04-06T06:28:37.427Z,7.98
2017-04-06T06:33:34.067Z,8.13
2017-04-06T06:38:30.763Z,8.30
2017-04-06T06:43:27.215Z,8.48
2017-04-06T06:48:24.113Z,8.53
2017-04-06T06:53:20.741Z,8.58
2017-04-06T06:58:18.321Z,8.49
2017-04-06T07:03:14.906Z,8.69
2017-04-06T07:13:17.260Z,8.92
2017-04-06T07:18:13.640Z,8.78
2017-04-06T07:23:10.228Z,8.99
2017-04-06T07:28:06.586Z,9.14
2017-04-06T07:33:03.809Z,9.44
2017-04-06T07:38:00.241Z,9.34
2017-04-06T07:42:56.763Z,9.44
2017-04-06T07:47:53.422Z,9.43
2017-04-06T07:52:50.505Z,9.65
2017-04-06T07:57:46.882Z,9.46
2017-04-06T08:02:43.463Z,9.51
2017-04-06T08:07:40.506Z,9.69
2017-04-06T08:12:37.001Z,9.72
2017-04-06T08:17:33.600Z,9.69
2017-04-06T08:22:29.832Z,9.87
2017-04-06T08:27:26.571Z,9.74
2017-04-06T08:32:29.428Z,9.58
2017-04-06T08:37:24.431Z,9.46
2017-04-06T08:42:21.837Z,9.48
2017-04-06T08:47:21.010Z,10.04
2017-04-06T08:52:17.226Z,10.23
2017-04-06T08:57:13.860Z,10.10
2017-04-06T09:02:12.047Z,10.10
2017-04-06T09:07:08.058Z,10.04
2017-04-06T09:12:04.447Z,10.13
2017-04-06T09:17:01.821Z,10.34
2017-04-06T09:21:58.218Z,10.16
2017-04-06T09:26:55.366Z,10.20
2017-04-06T09:31:52.673Z,10.19
2017-04-06T09:36:49.430Z,10.30
2017-04-06T09:41:47.138Z,10.41
2017-04-06T09:46:43.634Z,10.34
2017-04-06T09:51:41.629Z,10.74
2017-04-06T09:56:38.305Z,10.89
2017-04-06T10:01:34.970Z,11.41
2017-04-06T10:11:34.526Z,11.51
2017-04-06T10:16:30.963Z,11.32
2017-04-06T10:21:27.219Z,11.22
2017-04-06T10:26:23.407Z,11.18
2017-04-06T10:31:20.362Z,11.23
2017-04-06T10:36:17.215Z,11.35
2017-04-06T10:46:22.151Z,11.69
2017-04-06T10:51:20.615Z,12.90
2017-04-06T10:56:20.418Z,13.37
2017-04-06T11:01:19.344Z,13.20
2017-04-06T11:06:14.115Z,13.30
2017-04-06T11:11:11.138Z,12.94
2017-04-06T11:16:07.823Z,12.72
2017-04-06T11:21:03.139Z,12.55
2017-04-06T11:25:59.116Z,12.75
2017-04-06T11:30:57.071Z,12.91
2017-04-06T11:35:55.231Z,13.49
2017-04-06T11:40:54.533Z,13.03
2017-04-06T11:45:49.495Z,13.27
2017-04-06T11:50:47.036Z,13.44
2017-04-06T11:55:41.432Z,13.54
2017-04-06T12:00:36.972Z,12.55
2017-04-06T12:05:33.725Z,12.82
2017-04-06T12:10:31.689Z,13.30
2017-04-06T12:15:29.880Z,13.31
2017-04-06T12:20:27.803Z,13.74
2017-04-06T12:25:22.601Z,12.97
2017-04-06T12:30:21.250Z,13.44
2017-04-06T12:35:20.880Z,14.12
2017-04-06T12:45:16.267Z,13.44
2017-04-06T12:50:13.995Z,13.38
2017-04-06T12:55:09.076Z,13.12
2017-04-06T13:00:05.248Z,12.90
2017-04-06T13:05:02.587Z,12.75
2017-04-06T13:09:59.775Z,13.09
2017-04-06T13:15:00.201Z,13.38
2017-04-06T13:19:55.369Z,13.38
2017-04-06T13:24:51.737Z,13.08
2017-04-06T13:29:48.357Z,12.97
2017-04-06T13:34:44.833Z,12.87
2017-04-06T13:39:45.603Z,13.27
2017-04-06T13:44:41.011Z,12.93
2017-04-06T13:49:36.875Z,12.54
2017-04-06T13:54:33.096Z,12.47
2017-04-06T13:59:29.453Z,12.40
2017-04-06T14:04:26.418Z,12.25
2017-04-06T14:09:23.118Z,12.37
2017-04-06T14:14:21.802Z,12.94
2017-04-06T14:19:17.784Z,12.80
2017-04-06T14:24:14.294Z,12.70
2017-04-06T14:29:11.856Z,12.64
2017-04-06T14:34:08.226Z,12.79
2017-04-06T14:39:04.652Z,12.83
2017-04-06T14:44:01.198Z,12.82
2017-04-06T14:48:57.702Z,12.54
2017-04-06T14:53:53.960Z,12.36
2017-04-06T14:58:50.213Z,12.12
2017-04-06T15:03:46.586Z,12.18
2017-04-06T15:08:44.612Z,12.17
2017-04-06T15:13:41.477Z,12.28
2017-04-06T15:18:37.614Z,12.20
2017-04-06T15:23:35.239Z,12.09
2017-04-06T15:28:31.506Z,12.17
2017-04-06T15:33:27.860Z,12.18
2017-04-06T15:38:25.483Z,12.29
2017-04-06T15:43:21.883Z,12.31
2017-04-06T15:48:21.616Z,12.07
2017-04-06T15:53:17.551Z,12.06
2017-04-06T15:58:14.536Z,12.15
2017-04-06T16:03:13.364Z,11.90
2017-04-06T16:08:09.491Z,11.87
2017-04-06T16:13:09.340Z,12.09
2017-04-06T16:18:04.877Z,11.97
2017-04-06T16:23:01.207Z,11.88
2017-04-06T16:27:57.917Z,11.83
2017-04-06T16:32:54.410Z,11.78
2017-04-06T16:42:53.525Z,11.68
2017-04-06T16:47:50.034Z,11.91
2017-04-06T16:52:46.732Z,11.83
2017-04-06T16:57:43.994Z,11.63
2017-04-06T17:02:40.357Z,11.65
2017-04-06T17:07:36.745Z,11.65
2017-04-06T17:12:33.269Z,11.63
2017-04-06T17:17:29.478Z,11.50
2017-04-06T17:22:27.486Z,11.51
2017-04-06T17:27:23.534Z,11.60
2017-04-06T17:32:20.473Z,11.44
2017-04-06T17:37:17.014Z,11.37
2017-04-06T17:42:13.558Z,11.30
2017-04-06T17:47:10.845Z,11.36
2017-04-06T17:52:06.775Z,11.32
2017-04-06T17:57:03.470Z,11.37
2017-04-06T18:01:59.739Z,11.15
2017-04-06T18:06:56.229Z,11.11
2017-04-06T18:11:52.249Z,11.08
2017-04-06T18:16:49.438Z,10.99
2017-04-06T18:21:45.802Z,10.97
2017-04-06T18:26:42.230Z,10.90
2017-04-06T18:31:38.950Z,10.89
2017-04-06T18:36:35.217Z,10.89
2017-04-06T18:41:31.455Z,10.74
2017-04-06T18:46:28.558Z,10.79
2017-04-06T18:51:25.562Z,10.87
2017-04-06T18:56:22.624Z,10.82
2017-04-06T19:01:19.072Z,10.61
2017-04-06T19:06:15.678Z,10.69
2017-04-06T19:11:12.336Z,10.74
2017-04-06T19:16:10.811Z,10.57
2017-04-06T19:21:07.196Z,10.61
2017-04-06T19:26:03.595Z,10.74
2017-04-06T19:31:00.179Z,10.68
2017-04-06T19:35:56.733Z,10.60
2017-04-06T19:40:53.074Z,10.67
2017-04-06T19:45:49.974Z,10.57
2017-04-06T19:50:46.694Z,10.48
2017-04-06T19:55:43.065Z,10.49
2017-04-06T20:00:40.356Z,10.44
2017-04-06T20:05:36.498Z,10.34
2017-04-06T20:10:33.577Z,10.40
2017-04-06T20:15:30.077Z,10.53
2017-04-06T20:20:26.406Z,10.38
2017-04-06T20:25:23.168Z,10.35
2017-04-06T20:30:20.494Z,10.30
2017-04-06T20:35:16.260Z,10.12
2017-04-06T20:40:12.760Z,10.17
2017-04-06T20:45:09.320Z,10.09
2017-04-06T20:50:06.573Z,10.05
2017-04-06T20:55:03.095Z,10.09
2017-04-06T20:59:59.803Z,10.07
2017-04-06T21:04:56.160Z,10.02
2017-04-06T21:09:52.464Z,10.09
2017-04-06T21:14:49.263Z,10.15
2017-04-06T21:19:46.841Z,10.07
2017-04-06T21:24:42.983Z,10.07
2017-04-06T21:29:39.424Z,9.97
2017-04-06T21:34:36.560Z,10.01
2017-04-06T21:39:33.122Z,9.91
2017-04-06T21:44:30.624Z,9.77
2017-04-06T21:49:26.897Z,9.66
2017-04-06T21:54:23.274Z,9.69
2017-04-06T21:59:19.651Z,9.65
2017-04-06T22:04:15.948Z,9.56
2017-04-06T22:09:12.067Z,9.43
2017-04-06T22:14:08.486Z,9.43
2017-04-06T22:19:05.972Z,9.43
2017-04-06T22:24:02.270Z,9.32
2017-04-06T22:28:59.583Z,9.34
2017-04-06T22:33:56.306Z,9.22
2017-04-06T22:38:52.958Z,9.10
2017-04-06T22:43:49.763Z,9.02
2017-04-06T22:48:45.719Z,9.11
2017-04-06T22:53:42.391Z,8.97
2017-04-06T22:58:38.951Z,8.88
2017-04-06T23:03:35.456Z,8.99
2017-04-06T23:08:31.836Z,8.82
2017-04-06T23:13:28.246Z,8.66
2017-04-06T23:18:25.155Z,8.71
2017-04-06T23:23:22.424Z,8.78
2017-04-06T23:28:18.770Z,8.53
2017-04-06T23:33:15.416Z,8.58
2017-04-06T23:38:11.589Z,8.55
2017-04-06T23:43:07.910Z,8.49
2017-04-06T23:48:04.421Z,8.55
2017-04-06T23:53:01.958Z,8.44
2017-04-06T23:57:58.430Z,8.37
